Terminal Aerodrome Forecast
Issued by NWS Jackson, MS

Home | Current Version | Previous Version | Text Only | Print | Product List | Glossary On
Versions: 1 2 3 4 5 6 7 8 9 10 11 12 13 14
000
FTUS44 KJAN 011100 RRA
TAFGLH
TAF
KGLH 011154Z 0112/0212 17014G22KT P6SM VCSH SCT030 BKN060 OVC090
     FM011500 20016G25KT P6SM -SHRA BKN015 BKN025
      TEMPO 0120/0123 4SM TSRA OVC015CB
     FM012300 29018G27KT P6SM BKN030=

USA.gov is the U.S. government's official web portal to all federal, state and local government web resources and services.